メインページ
METAR-TAF:

METAR-TAF

空港 :

ワルシャワ・ショパン空港

ワルシャワ, ポーランド

緯度: 52-10N, 経度: 020-58E, 海抜: 106m

現時点の気象観測

当レポートは18分前の07:30(UTC)に作成
北/北東の風 7kt、から東/北東の間で変化する
気温 21°C
湿度 78%
気圧 1005 hPa
視程10km以上
高度1800ftの千切れ雲あり

METAR: EPWA 170730Z 02007KT 350V070 9999 BKN018 21/17 Q1005 NOSIG

時間: 09:48 (07:48 UTC)

予報

当レポートは2時間18分前の05:30(UTC)に作成
予報は17日の 06時(UTC)から 18日の 06時(UTC)まで有効
の風 9kt
視程10km以上
高度900ftの千切れ雲あり
17日の 07時(UTC)から 17日の 09時(UTC)まで徐々に
高度1700ftの千切れ雲あり
17日の 07時(UTC)から 17日の 19時(UTC)まで一時的に
高度1400ftの千切れ雲あり, 積乱雲.
にわか雨
確率 40% :
17日の 17時(UTC)から 17日の 19時(UTC)まで一時的に
視程: 4500m
激しい雷雨, 雨
18日の 00時(UTC)から 18日の 06時(UTC)まで一時的に
視程: 4000m
高度600ftの千切れ雲あり

TAF: EPWA 170530Z 1706/1806 35009KT 9999 BKN009 BECMG 1707/1709 BKN017 TEMPO 1707/1719 SHRA BKN014CB PROB40 TEMPO 1717/1719 4500 TSRA TEMPO 1800/1806 4000 BR BKN006

4,000以上の空港の気象観測と天気予報(METAR報とTAF報)

利用可能な観測所は地図上に黄色い丸と赤い丸で示す。

丸の上にカーソルを重ねると観測所名を参照できる。

次にクリックすると気象観測と天気予報を参照できる。

マップの切り替え:黒色「×」印の緑ボタンをクリックして拡大、「-」印の緑ボタンをクリックして縮小、緑色の三角印をクリックして隣りの地図に切り替え


METAR-TAF: